createdAt,value
2023-01-13T00:00:50.249Z,8.15
2023-01-13T00:03:16.619Z,8.13
2023-01-13T00:05:43.038Z,8.05
2023-01-13T00:08:09.430Z,8.08
2023-01-13T00:10:36.239Z,8.06
2023-01-13T00:13:04.763Z,8.02
2023-01-13T00:15:32.297Z,8.06
2023-01-13T00:17:58.844Z,8.04
2023-01-13T00:20:25.267Z,8.04
2023-01-13T00:22:51.669Z,8.06
2023-01-13T00:25:18.089Z,8.05
2023-01-13T00:27:44.483Z,8.05
2023-01-13T00:30:11.392Z,8.20
2023-01-13T00:32:38.130Z,8.14
2023-01-13T00:35:05.007Z,8.10
2023-01-13T00:37:31.440Z,8.12
2023-01-13T00:39:57.878Z,8.08
2023-01-13T00:42:43.062Z,8.17
2023-01-13T00:45:09.899Z,8.22
2023-01-13T00:47:36.380Z,8.33
2023-01-13T00:50:02.785Z,8.42
2023-01-13T00:52:31.340Z,8.33
2023-01-13T00:54:57.861Z,8.36
2023-01-13T00:57:24.320Z,8.49
2023-01-13T00:59:50.701Z,8.35
2023-01-13T01:02:17.321Z,8.36
2023-01-13T01:04:43.812Z,8.37
2023-01-13T01:07:10.274Z,8.32
2023-01-13T01:09:38.762Z,8.33
2023-01-13T01:12:05.384Z,8.29
2023-01-13T01:14:31.776Z,8.29
2023-01-13T01:16:58.147Z,8.23
2023-01-13T01:19:24.702Z,8.24
2023-01-13T01:21:51.156Z,8.22
2023-01-13T01:24:17.592Z,8.22
2023-01-13T01:26:44.002Z,8.29
2023-01-13T01:29:14.430Z,8.22
2023-01-13T01:31:41.198Z,8.25
2023-01-13T01:34:07.621Z,8.20
2023-01-13T01:36:35.203Z,8.09
2023-01-13T01:39:02.217Z,8.11
2023-01-13T01:41:31.548Z,8.13
2023-01-13T01:44:03.634Z,8.10
2023-01-13T01:46:40.199Z,8.13
2023-01-13T01:49:17.329Z,8.14
2023-01-13T01:51:49.664Z,8.11
2023-01-13T01:54:22.783Z,8.15
2023-01-13T01:56:49.568Z,8.22
2023-01-13T01:59:16.711Z,8.34
2023-01-13T02:01:44.411Z,8.33
2023-01-13T02:04:23.388Z,8.35
2023-01-13T02:06:50.748Z,8.32
2023-01-13T02:09:17.331Z,8.33
2023-01-13T02:12:02.366Z,8.41
2023-01-13T02:14:30.446Z,8.31
2023-01-13T02:17:15.136Z,8.30
2023-01-13T02:19:57.735Z,8.31
2023-01-13T02:22:42.306Z,8.26
2023-01-13T02:25:22.284Z,8.24
2023-01-13T02:28:33.502Z,8.19
2023-01-13T02:31:25.457Z,8.12
2023-01-13T02:34:05.711Z,8.05
2023-01-13T02:36:58.853Z,8.20
2023-01-13T02:39:38.229Z,8.02
2023-01-13T02:42:37.341Z,8.00
2023-01-13T02:45:26.304Z,8.01
2023-01-13T02:47:55.813Z,7.98
2023-01-13T02:50:28.850Z,7.95
2023-01-13T02:53:00.909Z,7.86
2023-01-13T02:55:36.439Z,7.87
2023-01-13T02:58:07.277Z,7.84
2023-01-13T03:00:35.149Z,7.83
2023-01-13T03:03:01.722Z,7.86
2023-01-13T03:05:30.066Z,7.86
2023-01-13T03:07:56.982Z,7.85
2023-01-13T03:10:36.006Z,7.85
2023-01-13T03:13:41.301Z,7.90
2023-01-13T03:16:36.004Z,7.97
2023-01-13T03:19:21.623Z,7.91
2023-01-13T03:22:17.288Z,7.99
2023-01-13T03:25:05.434Z,7.89
2023-01-13T03:27:42.541Z,7.92
2023-01-13T03:30:12.491Z,7.88
2023-01-13T03:32:42.537Z,7.84
2023-01-13T03:35:16.630Z,7.76
2023-01-13T03:37:49.661Z,7.78
2023-01-13T03:40:20.933Z,7.75
2023-01-13T03:43:18.433Z,7.78
2023-01-13T03:45:52.073Z,7.76
2023-01-13T03:48:22.776Z,7.79
2023-01-13T03:50:52.382Z,7.86
2023-01-13T03:53:23.567Z,7.85
2023-01-13T03:55:59.542Z,7.79
2023-01-13T03:58:32.755Z,7.77
2023-01-13T04:01:04.888Z,7.76
2023-01-13T04:03:43.689Z,7.76
2023-01-13T04:06:14.794Z,7.85
2023-01-13T04:08:49.131Z,7.88
2023-01-13T04:11:25.817Z,7.86
2023-01-13T04:13:53.727Z,7.90
2023-01-13T04:16:20.602Z,7.92
2023-01-13T04:18:49.916Z,7.91
2023-01-13T04:21:16.392Z,7.89
2023-01-13T04:23:42.801Z,7.93
2023-01-13T04:26:09.226Z,7.91
2023-01-13T04:28:35.679Z,7.93
2023-01-13T04:31:02.120Z,7.92
2023-01-13T04:33:28.652Z,7.95
2023-01-13T04:35:55.140Z,7.93
2023-01-13T04:38:21.814Z,7.97
2023-01-13T04:40:48.385Z,7.97
2023-01-13T04:43:15.818Z,7.99
2023-01-13T04:45:43.541Z,8.00
2023-01-13T04:48:10.472Z,8.02
2023-01-13T04:50:37.158Z,7.99
2023-01-13T04:53:03.720Z,8.00
2023-01-13T04:55:31.696Z,8.00
2023-01-13T04:58:05.903Z,8.08
2023-01-13T05:00:32.935Z,8.08
2023-01-13T05:02:59.574Z,8.07
2023-01-13T05:05:27.626Z,8.13
2023-01-13T05:07:54.299Z,8.11
2023-01-13T05:10:23.915Z,8.06
2023-01-13T05:13:10.441Z,8.10
2023-01-13T05:15:57.926Z,8.15
2023-01-13T05:18:24.543Z,8.15
2023-01-13T05:20:50.968Z,8.14
2023-01-13T05:23:35.811Z,8.14
2023-01-13T05:26:02.441Z,8.14
2023-01-13T05:28:33.748Z,8.17
2023-01-13T05:31:00.458Z,8.15
2023-01-13T05:33:26.928Z,8.18
2023-01-13T05:35:53.444Z,8.18
2023-01-13T05:38:19.926Z,8.14
2023-01-13T05:41:04.684Z,8.22
2023-01-13T05:43:32.859Z,8.18
2023-01-13T05:46:05.974Z,8.23
2023-01-13T05:48:38.368Z,8.31
2023-01-13T05:51:07.008Z,8.37
2023-01-13T05:53:33.804Z,8.30
2023-01-13T05:56:03.377Z,8.27
2023-01-13T05:58:29.821Z,8.20
2023-01-13T06:01:01.745Z,8.18
2023-01-13T06:03:28.250Z,8.16
2023-01-13T06:05:58.824Z,8.23
2023-01-13T06:08:25.813Z,8.19
2023-01-13T06:10:52.459Z,8.23
2023-01-13T06:13:19.121Z,8.22
2023-01-13T06:15:45.712Z,8.19
2023-01-13T06:18:12.282Z,8.16
2023-01-13T06:20:38.695Z,8.14
2023-01-13T06:23:09.400Z,8.13
2023-01-13T06:26:08.187Z,8.23
2023-01-13T06:28:34.911Z,8.17
2023-01-13T06:31:05.831Z,8.14
2023-01-13T06:33:45.781Z,8.24
2023-01-13T06:36:17.006Z,8.19
2023-01-13T06:38:47.563Z,8.17
2023-01-13T06:41:14.736Z,8.16
2023-01-13T06:43:41.408Z,8.13
2023-01-13T06:46:08.115Z,8.27
2023-01-13T06:48:35.356Z,8.22
2023-01-13T06:51:04.096Z,8.22
2023-01-13T06:53:31.001Z,8.15
2023-01-13T06:55:57.416Z,8.19
2023-01-13T06:58:23.959Z,8.25
2023-01-13T07:00:51.370Z,8.25
2023-01-13T07:03:18.951Z,8.22
2023-01-13T07:05:52.889Z,8.20
2023-01-13T07:08:19.454Z,8.11
2023-01-13T07:10:46.018Z,8.03
2023-01-13T07:13:31.046Z,8.08
2023-01-13T07:16:00.724Z,8.07
2023-01-13T07:18:31.292Z,8.04
2023-01-13T07:21:00.277Z,8.07
2023-01-13T07:23:28.346Z,8.12
2023-01-13T07:25:59.300Z,8.17
2023-01-13T07:28:27.439Z,8.19
2023-01-13T07:30:54.241Z,8.20
2023-01-13T07:33:21.337Z,8.20
2023-01-13T07:35:59.290Z,8.17
2023-01-13T07:38:26.547Z,8.21
2023-01-13T07:40:53.215Z,8.18
2023-01-13T07:43:32.196Z,8.21
2023-01-13T07:46:00.246Z,8.26
2023-01-13T07:48:27.857Z,8.30
2023-01-13T07:50:55.259Z,8.30
2023-01-13T07:53:24.855Z,8.25
2023-01-13T07:55:55.803Z,8.29
2023-01-13T07:58:22.414Z,8.31
2023-01-13T08:00:49.048Z,8.30
2023-01-13T08:03:15.609Z,8.29
2023-01-13T08:05:42.155Z,8.24
2023-01-13T08:08:08.622Z,8.25
2023-01-13T08:10:35.596Z,8.12
2023-01-13T08:13:21.026Z,8.01
2023-01-13T08:15:53.123Z,8.02
2023-01-13T08:18:22.261Z,8.09
2023-01-13T08:20:49.889Z,8.05
2023-01-13T08:23:17.058Z,7.99
2023-01-13T08:25:43.775Z,8.03
2023-01-13T08:28:10.658Z,8.01
2023-01-13T08:30:37.267Z,8.05
2023-01-13T08:33:07.723Z,7.95
2023-01-13T08:35:39.454Z,7.90
2023-01-13T08:38:06.169Z,7.80
2023-01-13T08:40:33.146Z,7.84
2023-01-13T08:42:59.922Z,7.85
2023-01-13T08:45:26.474Z,7.90
2023-01-13T08:47:52.794Z,7.31
2023-01-13T08:50:19.692Z,6.70
2023-01-13T08:52:46.128Z,6.55
2023-01-13T08:55:12.555Z,6.34
2023-01-13T08:57:38.894Z,6.30
2023-01-13T09:00:06.997Z,6.13
2023-01-13T09:02:33.525Z,6.02
2023-01-13T09:05:04.603Z,6.04
2023-01-13T09:07:31.245Z,6.11
2023-01-13T09:09:57.806Z,6.09
2023-01-13T09:12:42.937Z,6.09
2023-01-13T09:15:09.987Z,6.20
2023-01-13T09:17:36.335Z,6.34
2023-01-13T09:20:02.686Z,6.50
2023-01-13T09:22:29.231Z,6.54
2023-01-13T09:24:55.773Z,6.53
2023-01-13T09:27:23.506Z,6.57
2023-01-13T09:29:49.988Z,6.50
2023-01-13T09:32:16.340Z,6.51
2023-01-13T09:35:00.986Z,6.65
2023-01-13T09:37:28.337Z,6.82
2023-01-13T09:39:54.789Z,6.93
2023-01-13T09:42:47.461Z,6.95
2023-01-13T09:45:22.032Z,6.95
2023-01-13T09:48:06.743Z,6.95
2023-01-13T09:50:51.863Z,6.95
2023-01-13T09:53:23.405Z,6.90
2023-01-13T09:55:49.906Z,6.90
2023-01-13T09:58:18.051Z,6.93
2023-01-13T10:01:03.041Z,6.85
2023-01-13T10:03:30.809Z,6.78
2023-01-13T10:06:00.141Z,6.83
2023-01-13T10:08:32.629Z,6.79
2023-01-13T10:11:00.295Z,6.82
2023-01-13T10:13:31.282Z,6.82
2023-01-13T10:16:16.131Z,6.70
2023-01-13T10:18:51.594Z,6.75
2023-01-13T10:21:27.066Z,6.84
2023-01-13T10:24:07.145Z,6.84
2023-01-13T10:27:03.041Z,6.92
2023-01-13T10:29:31.014Z,7.00
2023-01-13T10:31:59.520Z,6.74
2023-01-13T10:34:27.197Z,6.56
2023-01-13T10:37:02.970Z,6.61
2023-01-13T10:39:38.976Z,6.38
2023-01-13T10:42:06.264Z,6.13
2023-01-13T10:44:45.857Z,5.99
2023-01-13T10:47:19.549Z,5.94
2023-01-13T10:49:58.277Z,5.88
2023-01-13T10:52:33.552Z,5.86
2023-01-13T10:55:01.033Z,5.91
2023-01-13T10:57:28.561Z,5.93
2023-01-13T10:59:56.212Z,5.92
2023-01-13T11:02:34.120Z,6.02
2023-01-13T11:05:18.446Z,6.05
2023-01-13T11:07:52.386Z,5.95
2023-01-13T11:10:18.837Z,5.97
2023-01-13T11:13:10.692Z,5.87
2023-01-13T11:15:43.659Z,5.79
2023-01-13T11:18:15.141Z,5.80
2023-01-13T11:20:46.273Z,5.92
2023-01-13T11:23:46.208Z,5.96
2023-01-13T11:26:21.621Z,6.05
2023-01-13T11:28:55.874Z,6.09
2023-01-13T11:31:50.089Z,6.22
2023-01-13T11:34:39.288Z,6.43
2023-01-13T11:37:17.840Z,6.55
2023-01-13T11:40:06.068Z,6.42
2023-01-13T11:42:36.624Z,6.31
2023-01-13T11:45:18.375Z,6.42
2023-01-13T11:47:51.058Z,6.58
2023-01-13T11:50:50.934Z,6.67
2023-01-13T11:53:30.783Z,6.84
2023-01-13T11:56:29.543Z,6.86
2023-01-13T11:59:05.106Z,6.90
2023-01-13T12:02:13.727Z,6.93
2023-01-13T12:04:59.126Z,6.96
2023-01-13T12:07:53.379Z,7.00
2023-01-13T12:10:44.448Z,7.02
2023-01-13T12:13:48.180Z,7.03
2023-01-13T12:16:30.154Z,7.08
2023-01-13T12:19:07.758Z,7.14
2023-01-13T12:21:42.481Z,7.15
2023-01-13T12:24:31.143Z,7.29
2023-01-13T12:27:12.852Z,7.24
2023-01-13T12:29:39.893Z,6.99
2023-01-13T12:32:15.799Z,6.96
2023-01-13T12:35:16.892Z,6.97
2023-01-13T12:38:28.652Z,7.01
2023-01-13T12:41:32.450Z,6.91
2023-01-13T12:44:17.884Z,6.95
2023-01-13T12:46:58.879Z,6.92
2023-01-13T12:49:28.152Z,6.96
2023-01-13T12:51:54.523Z,6.95
2023-01-13T12:54:32.881Z,6.91
2023-01-13T12:57:00.224Z,6.96
2023-01-13T12:59:26.641Z,6.99
2023-01-13T13:02:11.892Z,6.93
2023-01-13T13:04:51.730Z,7.00
2023-01-13T13:07:30.249Z,6.98
2023-01-13T13:10:05.200Z,7.05
2023-01-13T13:12:50.198Z,7.02
2023-01-13T13:15:22.860Z,7.02
2023-01-13T13:18:08.607Z,7.01
2023-01-13T13:20:55.604Z,7.11
2023-01-13T13:23:37.765Z,7.07
2023-01-13T13:26:17.384Z,7.19
2023-01-13T13:28:57.338Z,7.14
2023-01-13T13:31:35.989Z,7.07
2023-01-13T13:34:13.200Z,7.08
2023-01-13T13:36:58.573Z,6.97
2023-01-13T13:39:47.401Z,6.85
2023-01-13T13:42:55.879Z,6.73
2023-01-13T13:45:43.792Z,6.71
2023-01-13T13:48:28.059Z,6.69
2023-01-13T13:51:02.218Z,6.51
2023-01-13T13:53:34.187Z,6.36
2023-01-13T13:56:03.948Z,6.33
2023-01-13T13:58:35.468Z,6.14
2023-01-13T14:01:04.337Z,5.78
2023-01-13T14:03:34.385Z,5.61
2023-01-13T14:06:03.411Z,5.61
2023-01-13T14:08:34.258Z,5.37
2023-01-13T14:11:00.827Z,5.20
2023-01-13T14:13:29.765Z,5.25
2023-01-13T14:16:04.664Z,5.26
2023-01-13T14:18:35.125Z,5.13
2023-01-13T14:21:33.787Z,5.05
2023-01-13T14:24:05.469Z,5.04
2023-01-13T14:26:32.232Z,5.09
2023-01-13T14:29:01.884Z,5.21
2023-01-13T14:31:29.548Z,5.31
2023-01-13T14:33:58.236Z,5.23
2023-01-13T14:36:33.510Z,5.07
2023-01-13T14:39:03.012Z,4.91
2023-01-13T14:41:36.949Z,4.83
2023-01-13T14:44:21.552Z,4.91
2023-01-13T14:46:48.802Z,4.93
2023-01-13T14:49:24.240Z,4.95
2023-01-13T14:51:51.668Z,5.03
2023-01-13T14:54:42.902Z,5.00
2023-01-13T14:57:28.878Z,5.08
2023-01-13T15:00:01.676Z,4.98
2023-01-13T15:02:31.102Z,5.00
2023-01-13T15:05:24.089Z,5.15
2023-01-13T15:08:18.451Z,5.06
2023-01-13T15:10:50.954Z,4.90
2023-01-13T15:13:38.521Z,4.91
2023-01-13T15:16:26.429Z,4.85
2023-01-13T15:18:54.769Z,4.93
2023-01-13T15:21:21.614Z,4.91
2023-01-13T15:23:48.079Z,4.87
2023-01-13T15:26:26.613Z,4.98
2023-01-13T15:28:55.732Z,4.89
2023-01-13T15:31:23.425Z,4.95
2023-01-13T15:33:50.226Z,4.94
2023-01-13T15:36:21.591Z,5.00
2023-01-13T15:38:48.213Z,5.10
2023-01-13T15:41:14.650Z,5.21
2023-01-13T15:43:59.749Z,5.19
2023-01-13T15:46:38.542Z,5.18
2023-01-13T15:49:12.749Z,5.27
2023-01-13T15:51:40.197Z,5.29
2023-01-13T15:54:09.270Z,5.34
2023-01-13T15:56:37.990Z,5.33
2023-01-13T15:59:17.397Z,5.23
2023-01-13T16:01:45.089Z,5.26
2023-01-13T16:04:11.612Z,5.20
2023-01-13T16:06:38.182Z,5.13
2023-01-13T16:09:05.401Z,5.03
2023-01-13T16:11:32.033Z,4.88
2023-01-13T16:13:58.570Z,4.90
2023-01-13T16:16:28.033Z,4.81
2023-01-13T16:18:55.054Z,4.77
2023-01-13T16:21:22.776Z,4.80
2023-01-13T16:23:50.824Z,4.68
2023-01-13T16:26:29.815Z,4.69
2023-01-13T16:28:57.937Z,4.74
2023-01-13T16:31:32.011Z,4.70
2023-01-13T16:34:00.498Z,4.66
2023-01-13T16:36:28.638Z,4.70
2023-01-13T16:38:56.697Z,4.55
2023-01-13T16:41:24.884Z,4.57
2023-01-13T16:43:52.195Z,4.60
2023-01-13T16:46:18.660Z,4.49
2023-01-13T16:48:45.832Z,4.51
2023-01-13T16:51:12.337Z,4.51
2023-01-13T16:53:38.946Z,4.47
2023-01-13T16:56:16.801Z,4.52
2023-01-13T16:58:43.360Z,4.39
2023-01-13T17:01:18.929Z,4.46
2023-01-13T17:03:48.981Z,4.37
2023-01-13T17:06:17.361Z,4.52
2023-01-13T17:08:43.806Z,4.72
2023-01-13T17:11:10.411Z,4.89
2023-01-13T17:13:36.989Z,4.99
2023-01-13T17:16:03.525Z,5.18
2023-01-13T17:18:30.148Z,5.33
2023-01-13T17:20:58.661Z,5.32
2023-01-13T17:23:25.190Z,5.38
2023-01-13T17:25:54.593Z,5.44
2023-01-13T17:28:21.255Z,5.46
2023-01-13T17:34:40.396Z,5.32
2023-01-13T17:37:06.832Z,5.32
2023-01-13T17:39:33.376Z,5.33
2023-01-13T17:41:59.963Z,5.45
2023-01-13T17:44:26.667Z,5.46
2023-01-13T17:46:53.469Z,5.47
2023-01-13T17:53:06.768Z,5.34
2023-01-13T17:55:33.242Z,5.32
2023-01-13T17:57:59.738Z,5.43
2023-01-13T18:00:26.260Z,5.41
2023-01-13T18:02:54.324Z,5.54
2023-01-13T18:05:20.864Z,5.56
2023-01-13T18:07:47.347Z,5.62
2023-01-13T18:10:14.212Z,5.49
2023-01-13T18:12:40.727Z,5.47
2023-01-13T18:15:07.612Z,5.47
2023-01-13T18:17:34.114Z,5.39
2023-01-13T18:20:19.358Z,5.34
2023-01-13T18:23:04.190Z,5.31
2023-01-13T18:25:49.108Z,5.13
2023-01-13T18:28:15.530Z,5.12
2023-01-13T18:30:41.987Z,5.18
2023-01-13T18:33:08.397Z,5.05
2023-01-13T18:35:37.501Z,5.10
2023-01-13T18:38:03.966Z,5.09
2023-01-13T18:40:30.449Z,5.04
2023-01-13T18:42:58.901Z,4.93
2023-01-13T18:45:31.333Z,4.83
2023-01-13T18:48:01.357Z,4.85
2023-01-13T18:50:28.493Z,4.99
2023-01-13T18:52:55.569Z,5.14
2023-01-13T18:55:22.699Z,5.09
2023-01-13T18:57:50.341Z,4.96
2023-01-13T19:00:19.359Z,4.82
2023-01-13T19:02:47.325Z,4.93
2023-01-13T19:05:14.315Z,4.98
2023-01-13T19:07:40.856Z,4.95
2023-01-13T19:10:09.657Z,4.82
2023-01-13T19:12:36.153Z,4.77
2023-01-13T19:15:02.823Z,4.79
2023-01-13T19:17:34.418Z,4.73
2023-01-13T19:20:01.597Z,4.69
2023-01-13T19:22:30.949Z,4.71
2023-01-13T19:24:58.456Z,4.89
2023-01-13T19:27:27.430Z,4.81
2023-01-13T19:29:57.432Z,4.80
2023-01-13T19:32:24.540Z,4.74
2023-01-13T19:34:51.483Z,4.86
2023-01-13T19:37:19.307Z,4.79
2023-01-13T19:39:45.832Z,4.77
2023-01-13T19:42:31.973Z,4.84
2023-01-13T19:45:16.982Z,4.94
2023-01-13T19:47:45.361Z,4.85
2023-01-13T19:50:13.398Z,4.86
2023-01-13T19:52:39.930Z,4.82
2023-01-13T19:55:06.900Z,4.95
2023-01-13T19:57:33.396Z,5.08
2023-01-13T19:59:59.880Z,5.11
2023-01-13T20:02:31.364Z,5.24
2023-01-13T20:05:00.491Z,5.18
2023-01-13T20:07:29.467Z,5.24
2023-01-13T20:09:56.450Z,5.32
2023-01-13T20:12:24.378Z,5.31
2023-01-13T20:14:51.244Z,5.29
2023-01-13T20:17:19.839Z,5.28
2023-01-13T20:19:46.793Z,5.24
2023-01-13T20:22:13.980Z,5.26
2023-01-13T20:24:40.678Z,5.20
2023-01-13T20:27:07.361Z,5.17
2023-01-13T20:29:34.777Z,5.14
2023-01-13T20:32:01.479Z,5.11
2023-01-13T20:34:28.066Z,5.17
2023-01-13T20:36:54.539Z,5.29
2023-01-13T20:39:24.870Z,5.19
2023-01-13T20:42:10.037Z,5.38
2023-01-13T20:44:36.774Z,5.32
2023-01-13T20:47:03.630Z,5.36
2023-01-13T20:49:30.884Z,5.21
2023-01-13T20:51:58.774Z,5.29
2023-01-13T20:54:25.702Z,5.19
2023-01-13T20:56:52.246Z,5.11
2023-01-13T20:59:18.792Z,5.12
2023-01-13T21:01:45.525Z,5.17
2023-01-13T21:04:12.216Z,5.03
2023-01-13T21:06:38.829Z,4.87
2023-01-13T21:09:05.251Z,4.82
2023-01-13T21:11:50.098Z,4.72
2023-01-13T21:14:41.526Z,4.74
2023-01-13T21:17:29.320Z,4.68
2023-01-13T21:19:56.381Z,4.66
2023-01-13T21:22:22.933Z,4.56
2023-01-13T21:24:49.416Z,4.56
2023-01-13T21:27:15.957Z,4.64
2023-01-13T21:29:44.488Z,4.36
2023-01-13T21:32:11.294Z,4.33
2023-01-13T21:34:38.949Z,4.36
2023-01-13T21:37:05.601Z,4.47
2023-01-13T21:39:32.093Z,4.40
2023-01-13T21:42:16.930Z,4.37
2023-01-13T21:45:01.915Z,4.41
2023-01-13T21:47:46.766Z,4.34
2023-01-13T21:50:15.781Z,4.15
2023-01-13T21:52:45.113Z,4.06
2023-01-13T21:55:28.779Z,4.06
2023-01-13T21:58:01.082Z,4.05
2023-01-13T22:00:30.263Z,4.02
2023-01-13T22:02:58.537Z,3.85
2023-01-13T22:05:25.950Z,3.77
2023-01-13T22:07:53.284Z,3.81
2023-01-13T22:10:22.571Z,3.64
2023-01-13T22:12:55.494Z,3.62
2023-01-13T22:15:25.794Z,3.63
2023-01-13T22:17:53.808Z,3.61
2023-01-13T22:20:22.194Z,3.63
2023-01-13T22:22:49.443Z,3.67
2023-01-13T22:25:17.227Z,3.57
2023-01-13T22:27:44.898Z,3.49
2023-01-13T22:30:17.626Z,3.47
2023-01-13T22:32:45.595Z,3.55
2023-01-13T22:35:15.080Z,3.47
2023-01-13T22:37:43.300Z,3.34
2023-01-13T22:40:11.723Z,3.28
2023-01-13T22:42:39.587Z,3.32
2023-01-13T22:45:09.588Z,3.32
2023-01-13T22:47:36.289Z,3.38
2023-01-13T22:50:03.352Z,3.54
2023-01-13T22:52:30.151Z,3.62
2023-01-13T22:54:56.635Z,3.66
2023-01-13T22:57:24.006Z,3.69
2023-01-13T22:59:50.571Z,3.75
2023-01-13T23:02:17.052Z,3.85
2023-01-13T23:04:43.752Z,3.92
2023-01-13T23:07:10.263Z,3.83
2023-01-13T23:09:36.813Z,3.82
2023-01-13T23:12:03.388Z,3.75
2023-01-13T23:14:29.822Z,3.59
2023-01-13T23:16:56.298Z,3.48
2023-01-13T23:19:23.060Z,3.48
2023-01-13T23:21:49.626Z,3.46
2023-01-13T23:24:16.197Z,3.46
2023-01-13T23:26:42.707Z,3.64
2023-01-13T23:29:11.342Z,3.58
2023-01-13T23:31:37.969Z,3.49
2023-01-13T23:34:04.638Z,3.22
2023-01-13T23:36:31.221Z,3.27
2023-01-13T23:38:59.244Z,3.20
2023-01-13T23:41:27.168Z,3.04
2023-01-13T23:43:59.053Z,2.76
2023-01-13T23:46:26.841Z,2.80
2023-01-13T23:48:55.255Z,2.69
2023-01-13T23:51:22.556Z,2.69
2023-01-13T23:53:50.511Z,2.59
2023-01-13T23:56:22.380Z,2.69
2023-01-13T23:58:49.885Z,2.77
